Time;durP1;ratioP1;P1;durP2;ratioP2;P2;SDS_P1;SDS_P2;PMS_P1;PMS_P2;Temp;Humidity;BMP_temperature;BMP_pressure;BME280_temperature;BME280_humidity;BME280_pressure;Samples;Min_cycle;Max_cycle;Signal;HPM_P1;HPM_P2
2022/10/28 00:01:30;;;;;;;57.20;29.30;;;;;;;6.68;80.17;99990.34;86189;1291;22571;-79
2022/10/28 00:03:36;;;;;;;48.90;29.80;;;;;;;6.65;80.27;99990.02;86007;1290;26575;-78
2022/10/28 00:05:37;;;;;;;55.70;31.20;;;;;;;6.60;80.24;99993.57;85932;1290;99042;-79
2022/10/28 00:07:39;;;;;;;50.80;29.50;;;;;;;6.59;80.15;99989.25;86026;1290;22494;-78
2022/10/28 00:09:41;;;;;;;47.20;29.90;;;;;;;6.56;80.28;99987.71;86122;1283;22529;-78
2022/10/28 00:11:43;;;;;;;49.40;29.00;;;;;;;6.53;80.26;99985.84;85938;1283;100040;-78
2022/10/28 00:13:45;;;;;;;46.70;30.10;;;;;;;6.52;80.22;99984.65;86032;1284;24248;-79
2022/10/28 00:15:47;;;;;;;45.40;29.20;;;;;;;6.52;80.50;99983.94;85943;1299;22658;-77
2022/10/28 00:17:48;;;;;;;55.60;29.70;;;;;;;6.51;80.26;99983.60;86028;1290;98056;-77
2022/10/28 00:19:50;;;;;;;52.30;31.10;;;;;;;6.50;80.41;99985.02;85903;1300;25545;-79
2022/10/28 00:21:52;;;;;;;47.20;30.20;;;;;;;6.50;80.44;99987.80;85989;1299;22654;-79
2022/10/28 00:23:54;;;;;;;50.60;29.30;;;;;;;6.48;80.38;99986.96;86006;1284;98238;-78
2022/10/28 00:26:04;;;;;;;57.80;31.10;;;;;;;6.48;80.50;99985.06;85873;1313;23286;-78
2022/10/28 00:28:05;;;;;;;48.90;30.00;;;;;;;6.47;80.37;99984.17;86102;1297;22537;-78
2022/10/28 00:30:07;;;;;;;50.00;30.30;;;;;;;6.49;80.50;99981.55;86019;1290;97896;-79
2022/10/28 00:32:09;;;;;;;48.80;28.70;;;;;;;6.51;80.76;99976.11;86111;1300;22484;-78
2022/10/28 00:34:14;;;;;;;51.40;30.30;;;;;;;6.52;80.73;99971.55;86099;1291;22475;-79
2022/10/28 00:36:24;;;;;;;67.30;27.90;;;;;;;6.52;80.71;99972.94;85947;1287;99496;-78
2022/10/28 00:38:29;;;;;;;53.20;29.60;;;;;;;6.45;80.54;99970.06;86161;1299;22520;-78
2022/10/28 00:40:35;;;;;;;49.00;29.10;;;;;;;6.40;80.50;99968.94;86017;1297;22758;-80
2022/10/28 00:42:39;;;;;;;51.60;29.80;;;;;;;6.35;80.35;99969.19;86061;1290;98150;-80
2022/10/28 00:44:52;;;;;;;43.90;29.60;;;;;;;6.33;80.37;99968.16;86197;1283;23094;-78
2022/10/28 00:46:54;;;;;;;49.60;28.60;;;;;;;6.30;80.39;99966.27;86219;1297;22516;-78
2022/10/28 00:49:29;;;;;;;71.80;31.80;;;;;;;6.29;80.51;99964.55;86034;1296;97766;-79
2022/10/28 00:51:34;;;;;;;56.80;31.30;;;;;;;6.29;80.60;99958.45;86099;1289;22477;-80
2022/10/28 00:53:39;;;;;;;58.20;31.50;;;;;;;6.30;80.74;99960.70;85978;1291;99204;-79
2022/10/28 00:55:43;;;;;;;62.50;33.80;;;;;;;6.34;80.82;99959.41;86301;1290;22579;-78
2022/10/28 00:57:45;;;;;;;76.00;35.50;;;;;;;6.36;80.99;99956.61;86125;1291;26468;-79
2022/10/28 00:59:52;;;;;;;91.80;36.30;;;;;;;6.39;80.96;99957.08;85986;1293;98150;-78
2022/10/28 01:01:54;;;;;;;84.90;36.00;;;;;;;6.41;81.11;99956.86;85951;1283;23494;-78
2022/10/28 01:03:56;;;;;;;103.30;34.80;;;;;;;6.42;81.12;99953.20;86034;1291;23581;-78
2022/10/28 01:06:00;;;;;;;159.30;35.70;;;;;;;6.43;80.97;99947.94;86103;1298;98980;-78
2022/10/28 01:08:05;;;;;;;147.10;36.90;;;;;;;6.43;81.07;99948.45;86088;1286;22583;-78
2022/10/28 01:10:09;;;;;;;162.40;37.60;;;;;;;6.43;81.07;99947.24;86134;1290;25562;-78
2022/10/28 01:12:33;;;;;;;187.50;38.10;;;;;;;6.44;81.17;99944.77;86102;1307;100264;-78
2022/10/28 01:15:00;;;;;;;157.70;36.60;;;;;;;6.44;80.95;99940.07;86145;1287;22584;-77
2022/10/28 01:17:32;;;;;;;192.90;35.90;;;;;;;6.42;81.05;99943.05;86060;1298;99556;-78
2022/10/28 01:20:01;;;;;;;331.40;42.00;;;;;;;6.40;81.15;99942.22;86069;1291;22638;-77
2022/10/28 01:22:23;;;;;;;240.40;42.50;;;;;;;6.41;81.04;99943.08;86047;1290;24250;-78
2022/10/28 01:24:28;;;;;;;262.20;39.00;;;;;;;6.40;81.23;99940.12;86031;1290;98264;-78
2022/10/28 01:26:55;;;;;;;311.80;41.70;;;;;;;6.40;81.24;99936.29;86176;1288;22485;-78
2022/10/28 01:29:13;;;;;;;198.50;36.90;;;;;;;6.39;81.40;99936.14;86464;1288;22677;-78
2022/10/28 01:31:19;;;;;;;209.30;38.10;;;;;;;6.38;81.36;99935.10;86213;1283;24070;-78
2022/10/28 01:33:27;;;;;;;159.40;34.80;;;;;;;6.38;81.32;99933.86;86153;1289;22579;-78
2022/10/28 01:35:40;;;;;;;129.30;35.80;;;;;;;6.37;81.20;99924.11;86023;1294;99666;-78
2022/10/28 01:37:50;;;;;;;233.10;39.00;;;;;;;6.37;81.39;99924.11;86058;1283;22571;-78
2022/10/28 01:40:00;;;;;;;271.20;38.80;;;;;;;6.40;81.33;99924.26;86134;1284;23972;-78
2022/10/28 01:42:07;;;;;;;230.30;38.60;;;;;;;6.42;81.34;99922.11;86230;1291;99435;-78
2022/10/28 01:44:35;;;;;;;187.60;39.80;;;;;;;6.44;81.52;99923.13;86129;1287;22590;-78
2022/10/28 01:47:02;;;;;;;271.60;39.40;;;;;;;6.46;81.63;99918.73;85513;1295;22822;-76
2022/10/28 01:49:15;;;;;;;324.20;42.10;;;;;;;6.46;81.60;99919.25;85319;1298;24409;-78
2022/10/28 01:51:34;;;;;;;283.40;39.80;;;;;;;6.44;81.43;99920.00;85519;1289;23499;-77
2022/10/28 01:53:42;;;;;;;291.60;37.80;;;;;;;6.40;81.45;99919.70;85242;1292;99018;-78
2022/10/28 01:55:48;;;;;;;330.20;39.20;;;;;;;6.37;81.40;99918.52;85388;1299;24499;-78
2022/10/28 01:57:51;;;;;;;294.40;36.90;;;;;;;6.34;81.53;99917.02;85334;1298;22652;-78
2022/10/28 01:59:52;;;;;;;325.50;40.90;;;;;;;6.33;81.55;99915.79;85186;1299;99462;-79
2022/10/28 02:01:55;;;;;;;326.20;39.00;;;;;;;6.35;81.54;99912.29;85449;1293;22715;-79
2022/10/28 02:03:56;;;;;;;407.60;37.80;;;;;;;6.35;81.48;99909.66;85033;1301;23501;-79
2022/10/28 02:06:02;;;;;;;366.80;36.10;;;;;;;6.35;81.53;99907.75;85391;1296;98569;-79
2022/10/28 02:08:29;;;;;;;275.10;34.20;;;;;;;6.35;81.47;99901.98;85333;1299;22595;-79
2022/10/28 02:10:37;;;;;;;274.30;33.10;;;;;;;6.34;81.49;99900.08;85483;1289;24378;-78
2022/10/28 02:12:38;;;;;;;308.90;34.90;;;;;;;6.30;81.55;99899.96;85294;1299;99414;-79
2022/10/28 02:14:55;;;;;;;335.70;38.00;;;;;;;6.28;81.61;99895.98;85288;1299;24282;-78
2022/10/28 02:17:43;;;;;;;212.40;33.70;;;;;;;6.28;81.63;99891.77;85431;1289;25264;-79
2022/10/28 02:19:59;;;;;;;263.40;33.50;;;;;;;6.29;81.71;99892.64;85429;1292;22509;-78
2022/10/28 02:22:03;;;;;;;171.30;32.50;;;;;;;6.29;81.67;99888.11;85302;1295;25277;-78
2022/10/28 02:24:35;;;;;;;156.80;31.20;;;;;;;6.32;81.82;99884.05;85661;1290;98103;-79
2022/10/28 02:26:41;;;;;;;173.10;32.60;;;;;;;6.30;81.67;99878.66;86211;1288;22483;-79
2022/10/28 02:28:53;;;;;;;152.90;33.00;;;;;;;6.27;81.68;99876.09;86170;1291;22911;-79
2022/10/28 02:31:06;;;;;;;198.20;32.80;;;;;;;6.24;81.71;99869.16;85992;1283;98167;-79
2022/10/28 02:33:11;;;;;;;181.20;33.20;;;;;;;6.24;81.80;99875.98;86328;1284;22485;-77
2022/10/28 02:35:17;;;;;;;168.20;35.00;;;;;;;6.24;81.66;99878.77;86120;1290;97970;-79
2022/10/28 02:37:27;;;;;;;135.80;31.40;;;;;;;6.23;81.77;99874.25;85995;1289;23395;-79
2022/10/28 02:39:37;;;;;;;160.90;32.70;;;;;;;6.20;81.87;99872.03;86313;1296;22498;-79
2022/10/28 02:41:50;;;;;;;168.30;31.80;;;;;;;6.19;81.83;99873.80;86125;1283;98120;-79
2022/10/28 02:43:58;;;;;;;166.90;34.80;;;;;;;6.18;81.66;99875.35;86036;1291;22558;-79
2022/10/28 02:46:02;;;;;;;139.80;31.60;;;;;;;6.19;81.82;99879.53;85721;1293;22603;-79
2022/10/28 02:48:10;;;;;;;78.80;31.60;;;;;;;6.20;81.91;99874.80;86101;1290;98071;-79
2022/10/28 02:50:17;;;;;;;53.80;30.10;;;;;;;6.20;81.92;99875.15;85993;1291;22494;-78
2022/10/28 02:52:20;;;;;;;47.00;29.50;;;;;;;6.18;81.80;99873.61;86068;1284;22472;-80
2022/10/28 02:54:28;;;;;;;46.50;27.60;;;;;;;6.17;81.88;99870.31;85968;1294;97885;-79
2022/10/28 02:56:35;;;;;;;40.40;27.30;;;;;;;6.16;81.88;99868.23;85931;1290;22530;-78
2022/10/28 02:58:39;;;;;;;45.40;27.30;;;;;;;6.14;81.91;99869.48;86013;1294;25249;-78
2022/10/28 03:00:45;;;;;;;41.00;25.80;;;;;;;6.14;81.83;99872.30;85917;1290;98607;-79
2022/10/28 03:02:46;;;;;;;45.50;27.90;;;;;;;6.10;81.82;99865.70;86289;1290;22509;-79
2022/10/28 03:04:48;;;;;;;60.50;27.40;;;;;;;6.08;81.78;99865.40;86048;1291;23110;-79
2022/10/28 03:06:49;;;;;;;44.40;26.70;;;;;;;6.05;81.79;99863.02;85867;1290;99095;-79
2022/10/28 03:08:51;;;;;;;41.80;25.70;;;;;;;6.02;81.75;99863.05;86211;1296;26458;-79
2022/10/28 03:10:53;;;;;;;46.80;25.30;;;;;;;5.97;81.70;99857.70;85932;1291;22810;-78
2022/10/28 03:12:55;;;;;;;55.50;28.00;;;;;;;5.95;81.80;99858.77;85961;1289;99189;-80
2022/10/28 03:14:57;;;;;;;63.30;27.40;;;;;;;5.94;81.95;99859.64;85915;1283;22793;-79
2022/10/28 03:16:58;;;;;;;151.80;32.60;;;;;;;5.92;81.73;99854.08;86026;1291;22496;-79
2022/10/28 03:19:00;;;;;;;121.80;27.60;;;;;;;5.91;81.80;99853.23;85826;1287;99067;-79
2022/10/28 03:21:02;;;;;;;78.70;28.50;;;;;;;5.86;81.64;99851.39;85931;1291;22483;-79
2022/10/28 03:23:04;;;;;;;71.40;28.30;;;;;;;5.83;81.73;99852.13;86022;1284;22474;-80
2022/10/28 03:25:05;;;;;;;54.20;27.90;;;;;;;5.82;81.82;99856.68;85696;1290;98375;-79
2022/10/28 03:27:07;;;;;;;133.00;28.60;;;;;;;5.80;81.77;99861.59;85939;1289;23705;-78
2022/10/28 03:29:09;;;;;;;117.50;29.60;;;;;;;5.79;81.87;99860.38;85980;1290;22478;-80
2022/10/28 03:31:14;;;;;;;176.30;29.20;;;;;;;5.77;81.91;99861.28;86055;1289;99277;-78
2022/10/28 03:33:15;;;;;;;125.90;29.50;;;;;;;5.74;81.91;99860.27;86191;1288;24247;-79
2022/10/28 03:35:17;;;;;;;125.90;28.80;;;;;;;5.74;81.94;99864.45;85944;1290;99205;-79
2022/10/28 03:37:18;;;;;;;159.60;31.30;;;;;;;5.75;82.01;99867.77;86122;1297;23943;-78
2022/10/28 03:39:20;;;;;;;119.30;29.00;;;;;;;5.76;81.98;99862.17;85924;1294;22634;-79
2022/10/28 03:41:22;;;;;;;67.90;27.60;;;;;;;5.75;82.00;99863.58;85756;1300;98608;-79
2022/10/28 03:43:23;;;;;;;100.10;29.20;;;;;;;5.74;81.99;99864.30;86095;1284;24309;-79
2022/10/28 03:45:25;;;;;;;135.80;31.40;;;;;;;5.71;81.99;99859.98;85957;1289;23217;-79
2022/10/28 03:47:26;;;;;;;138.90;31.80;;;;;;;5.71;82.02;99856.83;86133;1287;100413;-79
2022/10/28 03:49:28;;;;;;;77.80;28.10;;;;;;;5.73;82.16;99859.95;85897;1291;22500;-79
2022/10/28 03:51:30;;;;;;;93.90;29.80;;;;;;;5.73;82.13;99856.98;86086;1291;22569;-79
2022/10/28 03:53:31;;;;;;;114.30;28.10;;;;;;;5.70;81.98;99850.04;85928;1290;98102;-79
2022/10/28 03:55:33;;;;;;;107.70;29.80;;;;;;;5.69;82.03;99847.81;85982;1290;22766;-78
2022/10/28 03:57:34;;;;;;;76.10;28.90;;;;;;;5.69;82.11;99845.02;86099;1283;23850;-79
2022/10/28 03:59:36;;;;;;;109.30;29.80;;;;;;;5.67;81.93;99843.48;85919;1283;98242;-79
2022/10/28 04:08:15;;;;;;;40.80;26.50;;;;;;;5.57;82.14;99845.01;84785;1308;23430;-78
2022/10/28 04:10:16;;;;;;;38.80;26.40;;;;;;;5.56;82.29;99840.32;84633;1301;22652;-79
2022/10/28 04:12:18;;;;;;;44.80;26.40;;;;;;;5.58;82.33;99841.50;84562;1312;99889;-78
2022/10/28 04:14:19;;;;;;;33.00;23.00;;;;;;;5.57;82.25;99844.14;84557;1311;22535;-78
2022/10/28 04:16:21;;;;;;;33.90;24.30;;;;;;;5.54;82.57;99847.66;84563;1301;22511;-80
2022/10/28 04:18:22;;;;;;;34.20;23.80;;;;;;;5.45;82.48;99838.19;84750;1307;99730;-77
2022/10/28 04:20:25;;;;;;;40.30;25.40;;;;;;;5.54;82.39;99849.57;84490;1303;26676;-78
2022/10/28 04:22:27;;;;;;;37.50;25.00;;;;;;;5.55;82.50;99845.38;84622;1301;22836;-79
2022/10/28 04:24:28;;;;;;;38.50;24.90;;;;;;;5.53;82.60;99840.88;84498;1308;98861;-78
2022/10/28 04:26:30;;;;;;;35.80;23.40;;;;;;;5.50;82.34;99836.04;84655;1304;22519;-78
2022/10/28 04:28:32;;;;;;;30.20;23.40;;;;;;;5.48;82.55;99832.75;84606;1308;22769;-77
2022/10/28 04:30:33;;;;;;;41.00;25.30;;;;;;;5.48;82.37;99831.52;84631;1307;99478;-78
2022/10/28 04:32:35;;;;;;;36.90;23.60;;;;;;;5.50;82.45;99837.95;84672;1301;22601;-80
2022/10/28 04:34:37;;;;;;;32.80;23.30;;;;;;;5.50;81.99;99833.59;84526;1311;24241;-79
2022/10/28 04:36:39;;;;;;;38.20;23.10;;;;;;;5.47;82.40;99828.06;84673;1307;98278;-77
2022/10/28 04:38:41;;;;;;;32.30;23.30;;;;;;;5.46;82.34;99823.02;84646;1308;22511;-79
2022/10/28 04:40:45;;;;;;;29.80;20.40;;;;;;;5.44;82.12;99813.28;84724;1308;22533;-79
2022/10/28 04:42:47;;;;;;;36.70;25.10;;;;;;;5.40;82.30;99811.95;84831;1307;99459;-79
2022/10/28 04:44:48;;;;;;;36.50;24.40;;;;;;;5.39;82.30;99822.08;84866;1303;22516;-79
2022/10/28 04:46:50;;;;;;;36.70;24.70;;;;;;;5.38;82.28;99819.80;85966;1294;25502;-78
2022/10/28 04:48:51;;;;;;;33.90;23.20;;;;;;;5.37;82.16;99816.17;85987;1290;98786;-80
2022/10/28 04:50:56;;;;;;;41.60;24.60;;;;;;;5.36;82.25;99823.51;86066;1293;24253;-79
2022/10/28 04:52:57;;;;;;;34.20;24.70;;;;;;;5.36;82.28;99820.17;86213;1283;23128;-78
2022/10/28 04:54:59;;;;;;;44.70;24.40;;;;;;;5.36;82.27;99820.52;86060;1284;98223;-79
2022/10/28 04:57:03;;;;;;;36.30;22.60;;;;;;;5.35;82.27;99820.20;86364;1290;22527;-80
2022/10/28 04:59:04;;;;;;;45.70;24.40;;;;;;;5.34;82.24;99818.30;86252;1292;22479;-78
2022/10/28 05:01:08;;;;;;;40.00;23.50;;;;;;;5.29;82.16;99810.34;86099;1300;98234;-80
2022/10/28 05:03:09;;;;;;;52.70;23.80;;;;;;;5.27;82.06;99807.75;85982;1294;22530;-78
2022/10/28 05:05:12;;;;;;;50.80;24.60;;;;;;;5.25;82.21;99807.95;86164;1297;26514;-80
2022/10/28 05:07:14;;;;;;;44.70;22.90;;;;;;;5.23;82.24;99809.89;86233;1315;99341;-79
2022/10/28 05:09:16;;;;;;;40.10;23.00;;;;;;;5.19;82.12;99809.60;86496;1291;22458;-78
2022/10/28 05:11:18;;;;;;;40.90;23.00;;;;;;;5.18;82.16;99813.45;86455;1291;99757;-79
2022/10/28 05:13:20;;;;;;;55.30;24.40;;;;;;;5.18;82.30;99820.42;86253;1283;22493;-79
2022/10/28 05:15:22;;;;;;;37.10;23.10;;;;;;;5.18;82.20;99821.47;86369;1291;22533;-80
2022/10/28 05:17:25;;;;;;;48.30;22.30;;;;;;;5.17;82.18;99822.34;86233;1298;99023;-79
2022/10/28 05:19:26;;;;;;;47.30;23.30;;;;;;;5.16;82.23;99822.36;86341;1290;25371;-79
2022/10/28 05:21:28;;;;;;;53.10;23.40;;;;;;;5.15;82.26;99821.17;86429;1291;22522;-80
2022/10/28 05:23:29;;;;;;;68.40;23.30;;;;;;;5.15;82.28;99821.70;86403;1284;99385;-79
2022/10/28 05:25:31;;;;;;;54.50;24.70;;;;;;;5.16;82.36;99827.58;86346;1287;25918;-78
2022/10/28 05:27:33;;;;;;;45.20;24.30;;;;;;;5.17;82.27;99819.39;86312;1291;22608;-79
2022/10/28 05:29:35;;;;;;;60.20;25.20;;;;;;;5.13;82.17;99814.39;86008;1290;99431;-79
2022/10/28 05:31:37;;;;;;;49.50;24.00;;;;;;;5.10;82.30;99811.45;86209;1290;24240;-78
2022/10/28 05:33:39;;;;;;;73.30;24.40;;;;;;;5.09;82.25;99809.71;86145;1291;22478;-75
2022/10/28 05:35:40;;;;;;;76.90;24.80;;;;;;;5.10;82.27;99806.23;85870;1286;98356;-77
2022/10/28 05:37:42;;;;;;;66.60;26.00;;;;;;;5.10;82.30;99808.32;86216;1290;22481;-77
2022/10/28 05:39:45;;;;;;;60.50;25.40;;;;;;;5.11;82.38;99807.08;86235;1287;24250;-76
2022/10/28 05:41:46;;;;;;;63.70;26.30;;;;;;;5.12;82.38;99805.67;85829;1291;100109;-76
2022/10/28 05:43:48;;;;;;;55.10;25.70;;;;;;;5.12;82.36;99808.11;86028;1290;24249;-78
2022/10/28 05:45:54;;;;;;;59.50;25.80;;;;;;;5.12;82.41;99804.47;86031;1286;22485;-78
2022/10/28 05:47:56;;;;;;;56.00;25.50;;;;;;;5.14;82.45;99809.32;85975;1291;98117;-77
2022/10/28 05:49:58;;;;;;;55.00;25.80;;;;;;;5.15;82.52;99809.48;85961;1290;24340;-77
2022/10/28 05:52:00;;;;;;;63.80;26.90;;;;;;;5.16;82.45;99816.27;85953;1291;22616;-78
2022/10/28 05:54:02;;;;;;;51.60;24.90;;;;;;;5.18;82.47;99819.20;85905;1298;99377;-78
2022/10/28 05:56:04;;;;;;;52.30;24.90;;;;;;;5.19;82.51;99813.26;85911;1291;24328;-78
2022/10/28 05:58:05;;;;;;;46.10;23.00;;;;;;;5.22;82.57;99814.80;86181;1291;23949;-78
2022/10/28 06:00:08;;;;;;;37.90;22.60;;;;;;;5.25;82.78;99814.74;85859;1291;99255;-77
2022/10/28 06:02:13;;;;;;;38.10;23.50;;;;;;;5.28;82.77;99811.06;86216;1293;22534;-79
2022/10/28 06:04:15;;;;;;;37.70;22.80;;;;;;;5.33;82.76;99813.09;86060;1287;22422;-77
2022/10/28 06:06:17;;;;;;;40.00;23.50;;;;;;;5.37;82.89;99807.63;85992;1291;99262;-77
2022/10/28 06:08:19;;;;;;;40.40;23.20;;;;;;;5.41;82.94;99804.44;86182;1290;24751;-77
2022/10/28 06:10:20;;;;;;;46.30;23.20;;;;;;;5.42;82.96;99795.00;86254;1284;27451;-76
2022/10/28 06:12:23;;;;;;;55.00;22.70;;;;;;;5.49;82.91;99802.39;86045;1291;98275;-77
2022/10/28 06:14:24;;;;;;;44.30;21.60;;;;;;;5.52;82.88;99803.23;85860;1293;22584;-78
2022/10/28 06:16:26;;;;;;;46.50;21.60;;;;;;;5.53;82.89;99804.77;85938;1286;25388;-77
2022/10/28 06:18:28;;;;;;;45.90;21.60;;;;;;;5.55;82.83;99809.30;86072;1295;99197;-77
2022/10/28 06:20:31;;;;;;;44.90;22.50;;;;;;;5.57;83.07;99802.81;86017;1291;22667;-78
2022/10/28 06:22:32;;;;;;;43.60;22.30;;;;;;;5.59;82.86;99802.44;86171;1286;24346;-78
2022/10/28 06:24:34;;;;;;;42.40;22.80;;;;;;;5.59;82.93;99798.42;85953;1290;100731;-78
2022/10/28 06:26:36;;;;;;;40.10;21.30;;;;;;;5.64;83.09;99807.59;86075;1283;22609;-78
2022/10/28 06:28:37;;;;;;;45.40;23.70;;;;;;;5.68;83.07;99805.09;85943;1290;24519;-78
2022/10/28 06:30:39;;;;;;;41.70;23.00;;;;;;;5.72;82.89;99811.14;85980;1300;98034;-77
2022/10/28 06:32:40;;;;;;;41.20;24.00;;;;;;;5.75;83.20;99809.52;86170;1290;22503;-78
2022/10/28 06:34:42;;;;;;;50.20;24.90;;;;;;;5.81;83.23;99816.94;85974;1291;25520;-77
2022/10/28 06:36:44;;;;;;;39.90;25.00;;;;;;;5.88;83.23;99817.36;85963;1290;97959;-79
2022/10/28 06:38:46;;;;;;;42.10;22.90;;;;;;;5.93;83.39;99816.39;86057;1291;24298;-79
2022/10/28 06:40:48;;;;;;;41.60;21.50;;;;;;;6.01;83.37;99819.80;86080;1291;22579;-77
2022/10/28 06:43:04;;;;;;;38.50;22.40;;;;;;;6.06;83.24;99819.38;86070;1290;99131;-78
2022/10/28 06:45:07;;;;;;;45.10;21.30;;;;;;;6.09;83.47;99802.40;85931;1301;23455;-78
2022/10/28 06:47:08;;;;;;;37.60;21.80;;;;;;;6.16;83.48;99807.88;86090;1286;22444;-77
2022/10/28 06:49:13;;;;;;;55.20;22.10;;;;;;;6.26;83.36;99812.77;86033;1292;99315;-79
2022/10/28 06:51:18;;;;;;;38.00;21.00;;;;;;;6.31;83.42;99812.86;85955;1293;23089;-77
2022/10/28 06:53:20;;;;;;;35.20;21.80;;;;;;;6.38;83.49;99818.30;85984;1289;24254;-78
2022/10/28 06:55:23;;;;;;;39.40;20.80;;;;;;;6.44;83.40;99820.13;86093;1289;99045;-77
2022/10/28 06:57:24;;;;;;;36.90;21.20;;;;;;;6.49;83.25;99821.61;86144;1290;22703;-78
2022/10/28 06:59:26;;;;;;;43.50;21.10;;;;;;;6.55;83.46;99820.27;85954;1291;98073;-79
2022/10/28 07:01:28;;;;;;;38.40;20.90;;;;;;;6.62;83.44;99819.97;86065;1290;23505;-77
2022/10/28 07:03:33;;;;;;;45.50;21.30;;;;;;;6.70;83.52;99820.36;86129;1290;24605;-78
2022/10/28 07:05:35;;;;;;;29.40;20.80;;;;;;;6.77;83.63;99824.26;86038;1287;99813;-77
2022/10/28 07:07:37;;;;;;;35.50;18.80;;;;;;;6.85;83.53;99825.14;86330;1291;22666;-79
2022/10/28 07:09:42;;;;;;;36.40;20.60;;;;;;;6.93;83.57;99823.77;86696;1291;22132;-77
2022/10/28 07:11:47;;;;;;;30.50;18.50;;;;;;;7.01;83.60;99829.02;86588;1297;99432;-78
2022/10/28 07:13:49;;;;;;;36.20;19.30;;;;;;;7.08;83.84;99831.84;86682;1291;23892;-74
2022/10/28 07:15:57;;;;;;;33.90;19.20;;;;;;;7.15;83.71;99827.52;86262;1290;22685;-75
2022/10/28 07:18:00;;;;;;;38.30;18.70;;;;;;;7.25;83.49;99826.08;86584;1292;100638;-75
2022/10/28 07:20:03;;;;;;;35.40;18.60;;;;;;;7.35;83.79;99824.13;86310;1298;22558;-76
2022/10/28 07:22:05;;;;;;;28.80;18.80;;;;;;;7.45;84.04;99823.04;86461;1284;22990;-76
2022/10/28 07:24:07;;;;;;;33.30;18.30;;;;;;;7.54;83.82;99826.70;86384;1291;100060;-75
2022/10/28 07:26:10;;;;;;;32.70;18.20;;;;;;;7.64;83.78;99826.29;86315;1288;22523;-78
2022/10/28 07:28:12;;;;;;;23.40;17.90;;;;;;;7.74;83.90;99827.30;86482;1290;22535;-77
2022/10/28 07:30:14;;;;;;;33.80;18.80;;;;;;;7.83;83.82;99829.53;86227;1292;99539;-77
2022/10/28 07:32:16;;;;;;;26.60;17.70;;;;;;;7.93;83.79;99830.54;86584;1288;25213;-77
2022/10/28 07:34:19;;;;;;;22.10;18.20;;;;;;;8.04;83.77;99829.59;86397;1291;22298;-78
2022/10/28 07:36:23;;;;;;;30.20;18.50;;;;;;;8.14;83.89;99828.63;86136;1293;98403;-78
2022/10/28 07:38:25;;;;;;;28.00;17.90;;;;;;;8.18;84.02;99813.33;86271;1290;22539;-77
2022/10/28 07:40:28;;;;;;;24.00;17.50;;;;;;;8.36;84.07;99820.73;86343;1289;22495;-77
2022/10/28 07:42:33;;;;;;;32.40;18.10;;;;;;;8.44;84.02;99822.98;85544;1291;1237248;-78
2022/10/28 07:44:38;;;;;;;29.00;17.60;;;;;;;8.57;83.87;99828.64;86481;1297;22829;-77
2022/10/28 07:46:40;;;;;;;30.10;18.70;;;;;;;8.68;83.94;99826.24;86282;1293;22505;-76
2022/10/28 07:48:42;;;;;;;28.60;18.40;;;;;;;8.79;83.99;99828.04;86221;1291;101085;-78
2022/10/28 07:50:44;;;;;;;24.40;18.70;;;;;;;8.90;83.66;99826.34;85971;1294;23078;-78
2022/10/28 07:52:45;;;;;;;29.10;19.00;;;;;;;9.02;84.06;99827.23;86001;1290;22504;-77
2022/10/28 07:54:47;;;;;;;26.40;17.30;;;;;;;9.14;83.92;99827.24;85888;1290;98080;-77
2022/10/28 07:56:49;;;;;;;27.30;19.00;;;;;;;9.28;83.99;99824.77;86155;1298;22599;-83
2022/10/28 07:58:51;;;;;;;29.70;17.20;;;;;;;9.38;83.70;99823.57;86053;1290;25244;-82
2022/10/28 08:00:53;;;;;;;33.10;17.80;;;;;;;9.51;83.79;99823.71;86126;1291;97979;-83
2022/10/28 08:02:54;;;;;;;29.60;16.70;;;;;;;9.66;83.70;99820.80;86530;1296;22552;-83
2022/10/28 08:04:56;;;;;;;31.00;16.90;;;;;;;9.79;83.80;99822.70;86181;1292;25415;-83
2022/10/28 08:06:58;;;;;;;25.00;16.80;;;;;;;9.90;83.76;99827.98;85924;1289;98181;-82
2022/10/28 08:09:01;;;;;;;22.90;16.30;;;;;;;10.03;83.70;99827.89;85999;1290;22477;-83
2022/10/28 08:11:15;;;;;;;40.70;17.50;;;;;;;10.18;83.78;99821.80;85985;1290;23071;-81
2022/10/28 08:13:17;;;;;;;29.80;16.20;;;;;;;10.33;83.75;99818.49;86166;1299;100959;-82
2022/10/28 08:15:22;;;;;;;22.20;15.40;;;;;;;10.51;83.92;99819.14;86172;1290;22550;-83
2022/10/28 08:17:24;;;;;;;19.00;14.20;;;;;;;10.70;83.75;99813.02;86278;1291;22649;-79
2022/10/28 08:19:26;;;;;;;28.00;15.50;;;;;;;10.92;83.80;99810.50;86211;1293;97932;-82
2022/10/28 08:21:27;;;;;;;38.20;14.80;;;;;;;11.10;83.71;99805.28;86261;1299;22991;-84
2022/10/28 08:23:29;;;;;;;30.00;14.10;;;;;;;11.26;83.58;99806.95;86097;1290;98311;-82
2022/10/28 08:25:31;;;;;;;30.30;13.60;;;;;;;11.40;83.41;99805.04;86228;1290;24268;-83
2022/10/28 08:27:33;;;;;;;18.80;12.00;;;;;;;11.54;83.45;99806.07;86248;1287;23156;-82
2022/10/28 08:29:34;;;;;;;22.70;12.80;;;;;;;11.69;83.28;99806.92;86243;1286;98293;-83
2022/10/28 08:31:39;;;;;;;18.80;11.70;;;;;;;11.85;83.33;99810.15;86223;1289;22528;-83
2022/10/28 08:33:44;;;;;;;20.80;11.10;;;;;;;11.98;83.23;99802.95;86343;1294;25237;-82
2022/10/28 08:35:50;;;;;;;20.30;11.80;;;;;;;12.14;83.23;99801.80;86011;1294;98415;-82
2022/10/28 08:37:52;;;;;;;19.20;12.00;;;;;;;12.30;83.15;99802.00;86070;1296;25732;-81
2022/10/28 08:39:54;;;;;;;20.50;11.60;;;;;;;12.45;82.80;99799.27;86076;1297;22502;-82
2022/10/28 08:42:14;;;;;;;18.00;11.60;;;;;;;12.59;83.08;99799.89;86170;1289;98845;-78
2022/10/28 08:44:57;;;;;;;26.80;14.00;;;;;;;12.76;82.91;99797.73;86265;1291;22480;-84
2022/10/28 08:47:15;;;;;;;32.30;14.80;;;;;;;12.91;82.77;99791.79;85747;1308;22719;-84
2022/10/28 08:49:21;;;;;;;33.30;15.90;;;;;;;13.02;82.48;99792.56;85687;1295;98322;-83
2022/10/28 08:51:49;;;;;;;24.30;14.70;;;;;;;13.10;82.77;99794.80;85760;1302;22503;-82
2022/10/28 08:53:59;;;;;;;24.80;13.30;;;;;;;13.21;82.39;99794.33;85899;1302;98383;-81
2022/10/28 08:56:14;;;;;;;31.50;12.50;;;;;;;13.32;82.44;99790.66;85326;1295;22562;-81
2022/10/28 08:58:27;;;;;;;28.10;12.50;;;;;;;13.42;82.39;99788.10;85493;1295;23363;-81
2022/10/28 09:00:32;;;;;;;18.60;12.80;;;;;;;13.51;82.29;99786.30;85921;1297;98183;-80
2022/10/28 09:02:51;;;;;;;26.30;12.00;;;;;;;13.59;82.06;99785.89;85620;1305;25380;-83
2022/10/28 09:05:20;;;;;;;24.00;11.80;;;;;;;13.65;82.08;99785.77;85729;1296;22849;-82
2022/10/28 09:07:23;;;;;;;29.10;12.80;;;;;;;13.72;81.84;99788.29;85680;1296;97998;-80
2022/10/28 09:09:26;;;;;;;20.00;12.30;;;;;;;13.76;82.07;99787.34;85846;1295;23066;-83
2022/10/28 09:11:49;;;;;;;21.00;12.60;;;;;;;13.84;81.85;99785.43;85810;1296;22447;-83
2022/10/28 09:14:21;;;;;;;18.00;12.60;;;;;;;13.94;81.99;99784.92;86044;1293;23753;-79
2022/10/28 09:16:29;;;;;;;31.90;13.00;;;;;;;14.05;81.73;99784.38;86146;1296;22631;-79
2022/10/28 09:18:57;;;;;;;25.20;13.40;;;;;;;14.15;81.98;99785.47;86156;1292;98097;-81
2022/10/28 09:21:03;;;;;;;31.70;13.40;;;;;;;14.27;81.83;99790.35;86213;1295;22566;-82
2022/10/28 09:23:19;;;;;;;20.90;14.20;;;;;;;14.35;81.65;99788.87;86290;1296;22968;-81
2022/10/28 09:25:47;;;;;;;20.80;13.10;;;;;;;14.44;81.78;99784.17;86847;1291;98381;-82
2022/10/28 09:28:02;;;;;;;18.60;12.70;;;;;;;14.57;81.72;99779.65;86820;1291;22503;-82
2022/10/28 09:30:35;;;;;;;17.00;12.00;;;;;;;14.79;81.93;99778.36;86680;1296;98370;-82
2022/10/28 09:32:43;;;;;;;19.40;11.40;;;;;;;15.02;81.77;99778.74;86724;1289;22502;-82
2022/10/28 09:35:07;;;;;;;24.20;12.90;;;;;;;15.15;81.45;99780.31;86597;1296;23597;-82
2022/10/28 09:37:35;;;;;;;26.40;12.20;;;;;;;15.31;81.36;99780.33;86714;1290;98184;-83
2022/10/28 09:39:48;;;;;;;20.00;11.20;;;;;;;15.40;81.11;99779.70;86962;1289;22506;-81
2022/10/28 09:41:53;;;;;;;17.80;10.90;;;;;;;15.48;80.99;99778.52;86819;1292;99141;-82
2022/10/28 09:44:39;;;;;;;20.60;10.50;;;;;;;15.66;80.96;99777.55;87064;1296;22485;-82
2022/10/28 09:46:47;;;;;;;19.20;10.40;;;;;;;15.91;80.95;99774.58;87222;1291;22426;-82
2022/10/28 09:48:57;;;;;;;22.70;11.30;;;;;;;16.12;80.62;99768.02;87012;1291;98316;-81
2022/10/28 09:50:59;;;;;;;22.00;10.80;;;;;;;16.34;80.36;99765.64;87087;1298;22542;-83